Time;durP1;ratioP1;P1;durP2;ratioP2;P2;SDS_P1;SDS_P2;PMS_P1;PMS_P2;Temp;Humidity;BMP_temperature;BMP_pressure;BME280_temperature;BME280_humidity;BME280_pressure;Samples;Min_cycle;Max_cycle;Signal;HPM_P1;HPM_P2
2022/06/15 00:00:43;;;;;;;12.57;8.88;;;13.60;99.90;;;;;;5089885;28;20047;-87
2022/06/15 00:03:13;;;;;;;11.93;9.73;;;13.60;99.90;;;;;;5092569;28;20054;-86
2022/06/15 00:05:42;;;;;;;11.10;8.57;;;13.50;99.90;;;;;;5108203;28;20481;-86
2022/06/15 00:08:09;;;;;;;13.15;9.23;;;13.50;99.90;;;;;;5107813;28;20055;-86
2022/06/15 00:10:36;;;;;;;9.85;8.60;;;13.50;99.90;;;;;;5084981;28;20055;-87
2022/06/15 00:13:02;;;;;;;12.20;9.57;;;13.50;99.90;;;;;;5090726;28;20043;-87
2022/06/15 00:15:28;;;;;;;10.77;8.85;;;13.40;99.90;;;;;;5087066;28;20039;-85
2022/06/15 00:17:54;;;;;;;9.88;8.60;;;13.40;99.90;;;;;;5089767;28;20131;-86
2022/06/15 00:20:20;;;;;;;10.20;8.68;;;13.40;99.90;;;;;;5090742;28;20097;-84
2022/06/15 00:22:46;;;;;;;13.85;9.60;;;13.40;99.90;;;;;;5113047;28;20067;-84
2022/06/15 00:25:14;;;;;;;12.68;9.98;;;13.40;99.90;;;;;;5092877;28;20388;-86
2022/06/15 00:27:40;;;;;;;13.60;9.65;;;13.30;99.90;;;;;;5090810;28;20051;-86
2022/06/15 00:30:07;;;;;;;9.82;7.97;;;13.30;99.90;;;;;;5105962;28;20032;-86
2022/06/15 00:32:33;;;;;;;12.55;8.85;;;13.20;99.90;;;;;;5085653;28;20062;-87
2022/06/15 00:35:02;;;;;;;13.02;9.23;;;12.30;99.90;;;;;;5086156;28;20039;-86
2022/06/15 00:37:27;;;;;;;11.93;9.05;;;13.20;99.90;;;;;;5104827;28;20055;-87
2022/06/15 00:39:53;;;;;;;13.02;9.07;;;13.20;99.90;;;;;;5121938;27;20864;-87
2022/06/15 00:42:20;;;;;;;12.60;8.52;;;13.20;99.90;;;;;;5084550;28;20056;-86
2022/06/15 00:44:46;;;;;;;11.30;9.05;;;13.10;99.90;;;;;;5108278;27;20536;-87
2022/06/15 00:47:23;;;;;;;10.68;8.80;;;13.10;99.90;;;;;;5113146;27;20059;-85
2022/06/15 00:49:49;;;;;;;12.70;9.02;;;13.10;99.90;;;;;;5107966;27;20396;-86
2022/06/15 00:52:21;;;;;;;11.60;9.27;;;13.10;99.90;;;;;;5097230;27;20043;-86
2022/06/15 00:54:49;;;;;;;12.73;8.93;;;13.10;99.90;;;;;;5133213;27;20043;-88
2022/06/15 00:57:15;;;;;;;11.80;8.95;;;13.00;99.90;;;;;;5088434;27;20050;-86
2022/06/15 01:00:00;;;;;;;11.77;9.45;;;12.60;99.90;;;;;;5092077;27;20051;-88
2022/06/15 01:02:27;;;;;;;14.82;9.43;;;13.10;99.90;;;;;;5089903;27;20038;-86
2022/06/15 01:05:03;;;;;;;11.85;7.85;;;13.00;99.90;;;;;;5108724;27;20049;-86
2022/06/15 01:07:44;;;;;;;11.25;9.43;;;13.00;99.90;;;;;;5094009;27;20521;-87
2022/06/15 01:10:25;;;;;;;11.38;9.10;;;13.10;99.90;;;;;;5092999;27;20523;-86
2022/06/15 01:13:34;;;;;;;11.13;8.10;;;13.00;99.90;;;;;;5095013;27;20179;-86
2022/06/15 01:16:06;;;;;;;10.90;8.23;;;13.00;99.90;;;;;;5095916;27;20035;-86
2022/06/15 01:18:59;;;;;;;12.27;8.43;;;13.00;99.90;;;;;;5088583;27;20611;-86
2022/06/15 01:21:48;;;;;;;10.20;7.78;;;13.00;99.90;;;;;;5092415;27;20051;-85
2022/06/15 01:24:52;;;;;;;10.48;8.57;;;13.00;99.90;;;;;;5091704;27;20051;-85
2022/06/15 01:27:33;;;;;;;12.25;8.70;;;13.00;99.90;;;;;;5092193;27;20168;-86
2022/06/15 01:30:22;;;;;;;11.20;8.10;;;13.00;99.90;;;;;;5089955;27;20085;-85
2022/06/15 01:33:00;;;;;;;11.40;8.35;;;12.90;99.90;;;;;;5108000;27;20127;-86
2022/06/15 01:35:51;;;;;;;10.30;8.48;;;12.90;99.90;;;;;;5110592;27;20047;-85
2022/06/15 01:38:30;;;;;;;10.10;7.82;;;12.90;99.90;;;;;;5092071;27;20106;-86
2022/06/15 01:41:01;;;;;;;12.27;8.43;;;12.90;99.90;;;;;;5095118;27;20053;-86
2022/06/15 01:43:31;;;;;;;10.88;7.80;;;12.90;99.90;;;;;;5092975;27;20098;-86
2022/06/15 01:45:59;;;;;;;13.50;8.57;;;12.90;99.90;;;;;;5108444;27;20071;-86
2022/06/15 01:48:27;;;;;;;10.23;7.97;;;12.80;99.90;;;;;;5091995;27;20087;-85
2022/06/15 01:50:57;;;;;;;9.68;7.70;;;12.80;99.90;;;;;;5109159;27;20133;-86
2022/06/15 01:53:33;;;;;;;10.38;8.30;;;12.80;99.90;;;;;;5091557;27;20047;-86
2022/06/15 01:56:08;;;;;;;9.48;7.45;;;12.80;99.90;;;;;;5087488;27;20058;-86
2022/06/15 01:58:37;;;;;;;10.93;8.23;;;12.70;99.90;;;;;;5091232;27;20392;-86
2022/06/15 02:01:16;;;;;;;10.45;6.90;;;12.70;99.90;;;;;;5091543;28;20081;-86
2022/06/15 02:03:46;;;;;;;10.25;7.65;;;12.70;99.90;;;;;;5092550;27;20392;-85
2022/06/15 02:06:18;;;;;;;10.73;7.07;;;12.60;99.90;;;;;;5107489;27;20103;-86
2022/06/15 02:08:50;;;;;;;10.60;7.95;;;12.60;99.90;;;;;;5091961;27;20078;-86
2022/06/15 02:11:39;;;;;;;11.13;7.72;;;12.60;99.90;;;;;;5092204;27;20074;-86
2022/06/15 02:14:30;;;;;;;13.13;8.73;;;12.60;99.90;;;;;;5089397;27;20498;-87
2022/06/15 02:17:09;;;;;;;10.98;8.90;;;12.60;99.90;;;;;;5090497;27;20044;-86
2022/06/15 02:19:43;;;;;;;11.60;8.35;;;12.50;99.90;;;;;;5090133;27;20499;-86
2022/06/15 02:22:16;;;;;;;11.15;8.25;;;12.50;99.90;;;;;;5091502;27;20050;-87
2022/06/15 02:24:45;;;;;;;10.75;8.15;;;12.50;99.90;;;;;;5116549;27;20075;-85
2022/06/15 02:27:14;;;;;;;12.85;8.75;;;12.50;99.90;;;;;;5105703;28;20043;-86
2022/06/15 02:29:43;;;;;;;10.27;8.30;;;12.40;99.90;;;;;;5092477;27;20053;-87
2022/06/15 02:32:11;;;;;;;11.07;8.82;;;12.50;99.90;;;;;;5091133;27;20500;-87
2022/06/15 02:34:38;;;;;;;11.60;9.77;;;12.30;99.90;;;;;;5093615;27;20055;-87
2022/06/15 02:37:05;;;;;;;10.35;8.63;;;12.40;99.90;;;;;;5091831;27;20047;-86
2022/06/15 02:39:32;;;;;;;12.00;9.15;;;12.40;99.90;;;;;;5090220;27;20058;-86
2022/06/15 02:42:35;;;;;;;12.65;9.50;;;12.40;99.90;;;;;;5092147;27;20116;-86
2022/06/15 02:45:09;;;;;;;10.52;8.30;;;12.40;99.90;;;;;;5080015;27;20051;-86
2022/06/15 02:47:40;;;;;;;11.35;8.93;;;11.60;99.90;;;;;;5091366;27;20130;-87
2022/06/15 02:50:08;;;;;;;12.75;8.65;;;12.40;99.90;;;;;;5108651;27;20065;-87
2022/06/15 02:52:43;;;;;;;12.10;8.13;;;12.40;99.90;;;;;;5086347;27;20317;-86
2022/06/15 02:55:11;;;;;;;12.85;9.85;;;12.40;99.90;;;;;;5095013;28;20375;-86
2022/06/15 02:57:47;;;;;;;12.30;9.98;;;12.30;99.90;;;;;;5091750;27;20104;-87
2022/06/15 03:00:18;;;;;;;11.98;8.98;;;12.30;99.90;;;;;;5084013;28;20052;-85
2022/06/15 03:02:44;;;;;;;12.52;9.48;;;12.30;99.90;;;;;;5089326;28;20047;-85
2022/06/15 03:05:10;;;;;;;13.65;9.70;;;12.30;99.90;;;;;;5097546;28;20046;-85
2022/06/15 03:07:39;;;;;;;13.73;10.27;;;12.30;99.90;;;;;;5109779;28;20043;-86
2022/06/15 03:10:06;;;;;;;10.15;8.93;;;12.30;99.90;;;;;;5121440;28;20058;-87
2022/06/15 03:12:32;;;;;;;12.82;9.07;;;12.30;99.90;;;;;;5120278;27;20047;-85
2022/06/15 03:14:57;;;;;;;11.82;9.38;;;12.20;99.90;;;;;;5101096;27;20547;-86
2022/06/15 03:17:23;;;;;;;13.70;9.00;;;12.30;99.90;;;;;;5098106;27;20571;-85
2022/06/15 03:19:49;;;;;;;11.75;9.27;;;12.30;99.90;;;;;;5082033;27;20430;-86
2022/06/15 03:22:15;;;;;;;12.43;8.88;;;12.20;99.90;;;;;;5093461;27;20043;-86
2022/06/15 03:24:41;;;;;;;11.50;9.45;;;11.60;99.90;;;;;;5094405;27;20524;-88
2022/06/15 03:27:09;;;;;;;14.73;9.80;;;12.20;99.90;;;;;;5118113;27;20035;-86
2022/06/15 03:29:36;;;;;;;13.02;10.23;;;12.20;99.90;;;;;;5081578;27;20058;-86
2022/06/15 03:32:02;;;;;;;9.55;8.48;;;12.20;99.90;;;;;;5112326;27;20043;-86
2022/06/15 03:34:28;;;;;;;12.32;8.88;;;12.30;99.90;;;;;;5099773;27;20443;-87
2022/06/15 03:36:54;;;;;;;11.27;8.43;;;12.30;99.90;;;;;;5097709;27;20043;-86
2022/06/15 03:39:20;;;;;;;11.07;8.88;;;12.20;99.90;;;;;;5094297;27;20464;-86
2022/06/15 03:41:46;;;;;;;10.18;8.30;;;12.20;99.90;;;;;;5091245;27;20050;-85
2022/06/15 03:44:12;;;;;;;12.43;9.73;;;12.30;99.90;;;;;;5096825;27;20043;-87
2022/06/15 03:46:40;;;;;;;13.00;9.73;;;12.20;99.90;;;;;;5108598;28;20051;-87
2022/06/15 03:49:07;;;;;;;13.07;9.20;;;12.40;99.90;;;;;;5088096;28;20100;-86
2022/06/15 03:51:35;;;;;;;9.77;8.48;;;12.30;99.90;;;;;;5077183;28;20051;-86
2022/06/15 03:54:01;;;;;;;13.27;10.13;;;12.30;99.90;;;;;;5088304;28;20044;-87
2022/06/15 03:57:02;;;;;;;12.45;8.88;;;12.30;99.90;;;;;;5089769;28;20115;-86
2022/06/15 03:59:29;;;;;;;11.68;9.18;;;12.30;99.90;;;;;;5010221;28;20573;-86
2022/06/15 04:01:54;;;;;;;10.38;8.57;;;12.30;99.90;;;;;;5110847;28;20087;-88
2022/06/15 04:04:20;;;;;;;12.05;9.82;;;12.40;99.90;;;;;;5094062;28;20108;-86
2022/06/15 04:06:46;;;;;;;15.65;8.50;;;12.30;99.90;;;;;;5093575;28;20046;-86
2022/06/15 04:09:12;;;;;;;10.57;8.18;;;12.40;99.90;;;;;;5092337;28;20104;-86
2022/06/15 04:14:22;;;;;;;11.40;8.70;;;12.50;99.90;;;;;;5110508;28;20055;-86
2022/06/15 04:16:53;;;;;;;11.13;8.85;;;12.50;99.90;;;;;;5093773;28;20054;-87
2022/06/15 04:19:25;;;;;;;12.10;8.35;;;12.50;99.90;;;;;;5091565;28;20091;-87
2022/06/15 04:21:51;;;;;;;11.43;8.88;;;12.50;99.90;;;;;;5089134;28;20040;-86
2022/06/15 04:24:21;;;;;;;13.15;8.27;;;12.60;99.90;;;;;;5089749;28;20484;-87
2022/06/15 04:26:48;;;;;;;11.15;8.20;;;12.60;99.90;;;;;;5093166;28;20044;-86
2022/06/15 04:29:15;;;;;;;11.38;9.20;;;12.20;99.90;;;;;;5111079;28;20548;-85
2022/06/15 04:31:44;;;;;;;9.93;8.10;;;12.70;99.90;;;;;;5077775;28;20113;-87
2022/06/15 04:34:11;;;;;;;11.68;8.50;;;12.70;99.90;;;;;;5106284;28;20077;-86
2022/06/15 04:36:43;;;;;;;9.35;7.70;;;12.70;99.90;;;;;;5106562;28;20096;-86
2022/06/15 04:39:13;;;;;;;10.80;7.72;;;12.70;99.90;;;;;;5075416;28;20044;-85
2022/06/15 04:41:40;;;;;;;11.23;8.30;;;12.80;99.90;;;;;;5090234;28;20047;-87
2022/06/15 04:44:07;;;;;;;12.95;9.18;;;12.80;99.90;;;;;;5081545;28;20059;-87
2022/06/15 04:46:34;;;;;;;10.48;8.13;;;12.90;99.90;;;;;;5091846;28;20079;-86
2022/06/15 04:49:01;;;;;;;11.88;8.48;;;12.90;99.90;;;;;;5076502;28;20055;-85
2022/06/15 04:51:30;;;;;;;12.27;8.23;;;13.00;99.90;;;;;;5092802;28;20048;-86
2022/06/15 04:53:57;;;;;;;11.10;8.85;;;13.00;99.90;;;;;;5087805;28;20040;-86
2022/06/15 04:56:27;;;;;;;11.63;8.18;;;13.00;99.90;;;;;;5088182;28;20733;-86
2022/06/15 04:58:53;;;;;;;11.20;8.02;;;13.10;99.90;;;;;;5076861;28;20044;-86
2022/06/15 05:01:19;;;;;;;10.63;8.32;;;13.20;99.90;;;;;;5105572;28;20052;-86
2022/06/15 05:03:45;;;;;;;9.63;7.78;;;12.70;99.90;;;;;;5085998;28;20051;-87
2022/06/15 05:06:28;;;;;;;12.77;8.55;;;13.20;99.90;;;;;;5090998;28;20047;-87
2022/06/15 05:08:57;;;;;;;13.50;8.73;;;13.40;99.90;;;;;;5092305;28;20047;-86
2022/06/15 05:11:26;;;;;;;9.15;7.00;;;13.40;99.90;;;;;;5092028;28;20047;-86
2022/06/15 05:13:52;;;;;;;11.88;8.15;;;13.50;99.90;;;;;;5089347;28;20131;-86
2022/06/15 05:16:18;;;;;;;10.73;7.18;;;13.50;99.90;;;;;;5093084;28;20044;-86
2022/06/15 05:18:44;;;;;;;9.73;7.60;;;13.60;99.90;;;;;;5087314;28;20051;-86
2022/06/15 05:21:12;;;;;;;10.90;7.53;;;13.70;99.90;;;;;;5074120;28;20544;-85
2022/06/15 05:23:38;;;;;;;9.43;7.57;;;14.50;99.90;;;;;;5088933;28;20040;-87
2022/06/15 05:26:04;;;;;;;9.98;7.25;;;13.80;99.90;;;;;;5107490;28;20058;-86
2022/06/15 05:28:32;;;;;;;12.30;8.50;;;13.90;99.90;;;;;;5109528;28;20611;-86
2022/06/15 05:31:06;;;;;;;8.07;6.75;;;14.00;99.90;;;;;;5071452;28;20047;-86
2022/06/15 05:33:34;;;;;;;11.93;6.82;;;14.10;99.90;;;;;;5090066;28;20484;-87
2022/06/15 05:36:05;;;;;;;8.70;6.43;;;14.20;99.90;;;;;;5087931;28;20039;-86
2022/06/15 05:38:31;;;;;;;10.15;7.75;;;14.30;99.90;;;;;;5091818;28;20047;-86
2022/06/15 05:40:58;;;;;;;11.02;7.32;;;14.40;99.90;;;;;;5090843;28;20426;-87
2022/06/15 05:43:24;;;;;;;10.18;7.28;;;14.50;99.90;;;;;;5096873;28;20061;-87
2022/06/15 05:45:50;;;;;;;9.73;5.93;;;13.90;99.90;;;;;;5121703;28;20488;-87
2022/06/15 05:48:16;;;;;;;7.82;6.30;;;14.80;99.90;;;;;;5108430;28;20127;-87
2022/06/15 05:50:48;;;;;;;8.68;5.63;;;14.90;99.90;;;;;;5089442;28;20147;-86
2022/06/15 05:53:13;;;;;;;8.25;5.88;;;15.00;99.90;;;;;;5088869;28;20047;-87
2022/06/15 05:55:41;;;;;;;9.13;5.82;;;15.10;99.90;;;;;;5083549;28;20366;-87
2022/06/15 05:58:10;;;;;;;8.13;5.32;;;14.50;99.90;;;;;;5083218;28;20101;-87
2022/06/15 06:00:38;;;;;;;8.98;5.70;;;14.70;99.90;;;;;;5089408;28;20092;-86
2022/06/15 06:03:04;;;;;;;8.43;5.70;;;15.50;99.90;;;;;;5104549;28;20051;-86
2022/06/15 06:05:30;;;;;;;10.25;5.38;;;15.60;99.90;;;;;;5087812;28;20396;-87
2022/06/15 06:07:58;;;;;;;9.32;5.47;;;15.80;99.90;;;;;;5090099;28;20108;-86
2022/06/15 06:10:23;;;;;;;11.20;5.65;;;15.90;99.90;;;;;;5089218;28;20052;-88
2022/06/15 06:12:49;;;;;;;6.13;5.03;;;16.00;99.90;;;;;;5105903;28;20101;-85
2022/06/15 06:15:15;;;;;;;6.97;4.60;;;16.10;99.90;;;;;;5070805;28;20126;-86
2022/06/15 06:17:43;;;;;;;8.27;5.32;;;16.30;99.90;;;;;;5073817;28;20127;-86
2022/06/15 06:20:09;;;;;;;10.48;4.80;;;15.80;99.90;;;;;;5072112;28;20044;-87
2022/06/15 06:22:35;;;;;;;8.57;4.28;;;16.50;99.90;;;;;;5083409;28;20484;-86
2022/06/15 06:25:06;;;;;;;8.32;4.55;;;16.60;99.90;;;;;;5083918;28;20052;-88
2022/06/15 06:27:33;;;;;;;7.38;4.05;;;16.80;99.90;;;;;;5090641;28;20472;-87
2022/06/15 06:29:59;;;;;;;8.68;4.03;;;16.90;99.90;;;;;;5085055;28;20134;-85
2022/06/15 06:32:25;;;;;;;4.65;3.20;;;17.30;99.90;;;;;;5073803;28;20155;-85
2022/06/15 06:34:51;;;;;;;5.78;3.22;;;17.30;99.90;;;;;;5084616;28;20036;-86
2022/06/15 06:37:19;;;;;;;6.80;3.55;;;17.40;99.90;;;;;;5088722;28;20084;-87
2022/06/15 06:39:45;;;;;;;7.05;3.53;;;17.60;99.90;;;;;;5068359;28;20100;-87
2022/06/15 06:42:11;;;;;;;5.57;3.38;;;17.80;99.90;;;;;;5085239;28;20123;-86
2022/06/15 06:44:42;;;;;;;5.90;3.10;;;18.10;99.90;;;;;;5084525;28;20044;-86
2022/06/15 06:47:08;;;;;;;5.05;3.13;;;18.30;99.90;;;;;;5084191;28;20124;-86
2022/06/15 06:49:35;;;;;;;6.32;2.97;;;18.40;99.90;;;;;;5084484;28;20051;-88
2022/06/15 06:52:01;;;;;;;3.75;2.50;;;18.50;99.90;;;;;;5089802;28;20044;-87
2022/06/15 06:54:29;;;;;;;8.68;3.42;;;18.60;99.90;;;;;;5074671;28;20057;-86
2022/06/15 06:56:55;;;;;;;5.50;3.20;;;18.70;99.90;;;;;;5085177;28;20035;-88
2022/06/15 06:59:23;;;;;;;8.05;3.63;;;18.70;99.90;;;;;;5086002;28;20112;-87
2022/06/15 07:01:52;;;;;;;6.15;2.63;;;18.80;99.90;;;;;;5088165;28;20051;-86
2022/06/15 07:04:18;;;;;;;6.07;3.05;;;18.80;99.90;;;;;;5088309;28;20075;-87
2022/06/15 07:06:46;;;;;;;6.47;3.05;;;18.80;99.90;;;;;;5093395;28;20055;-87
2022/06/15 07:09:15;;;;;;;5.53;2.90;;;19.00;99.90;;;;;;5090121;28;20100;-86
2022/06/15 07:11:42;;;;;;;6.90;2.85;;;19.10;99.90;;;;;;5074775;28;20047;-86
2022/06/15 07:14:14;;;;;;;5.13;2.88;;;19.20;99.90;;;;;;5087801;28;20120;-88
2022/06/15 07:16:43;;;;;;;4.90;2.85;;;19.40;99.90;;;;;;5096347;28;20051;-87
2022/06/15 07:19:10;;;;;;;5.10;2.78;;;19.50;99.90;;;;;;5097139;28;20086;-87
2022/06/15 07:21:38;;;;;;;4.97;2.70;;;19.60;99.90;;;;;;5091755;28;20048;-87
2022/06/15 07:24:04;;;;;;;5.80;2.70;;;19.70;99.90;;;;;;5092334;28;20066;-86
2022/06/15 07:26:42;;;;;;;6.30;3.10;;;19.90;99.90;;;;;;5069276;28;20185;-86
2022/06/15 07:29:17;;;;;;;5.53;2.60;;;19.90;99.90;;;;;;5084947;28;20055;-87
2022/06/15 07:31:46;;;;;;;6.97;2.70;;;19.90;99.90;;;;;;5103408;28;20056;-86
2022/06/15 07:34:14;;;;;;;3.97;2.15;;;20.00;99.90;;;;;;5086566;28;20040;-86
2022/06/15 07:36:49;;;;;;;4.82;2.65;;;20.10;99.90;;;;;;5088310;28;20073;-86
2022/06/15 07:39:27;;;;;;;4.47;2.05;;;19.70;99.90;;;;;;5084772;28;20125;-86
2022/06/15 07:41:55;;;;;;;6.15;2.30;;;20.50;99.90;;;;;;5094108;28;20056;-86
2022/06/15 07:44:24;;;;;;;4.35;2.17;;;20.70;99.90;;;;;;5090587;28;20522;-86
2022/06/15 07:49:54;;;;;;;4.28;2.17;;;20.90;99.90;;;;;;5069403;28;20064;-85
2022/06/15 07:49:56;;;;;;;5.55;2.47;;;21.00;99.90;;;;;;5087366;28;20048;-86
2022/06/15 07:52:37;;;;;;;5.97;2.67;;;21.30;99.90;;;;;;5095519;28;20051;-86
2022/06/15 07:55:05;;;;;;;4.20;2.00;;;21.50;99.90;;;;;;5089268;28;20052;-87
2022/06/15 07:57:31;;;;;;;4.25;2.45;;;22.60;99.90;;;;;;5070108;28;20044;-86
2022/06/15 07:59:57;;;;;;;5.43;2.50;;;21.90;99.90;;;;;;5075262;28;20048;-86
2022/06/15 08:02:23;;;;;;;3.70;1.70;;;22.30;99.90;;;;;;5075468;28;20047;-86
2022/06/15 08:04:59;;;;;;;;;;;;;;;;;;;;;
2022/06/15 08:07:26;;;;;;;6.07;2.75;;;22.70;99.90;;;;;;5090476;28;20046;-85
2022/06/15 08:09:52;;;;;;;3.63;1.75;;;22.90;99.90;;;;;;5073996;28;20477;-85
2022/06/15 08:12:19;;;;;;;4.47;1.90;;;22.90;99.90;;;;;;5076251;28;20044;-86
2022/06/15 08:14:52;;;;;;;2.72;1.80;;;23.10;99.90;;;;;;5093528;28;20079;-85
2022/06/15 08:17:23;;;;;;;2.95;1.30;;;23.30;99.90;;;;;;5072747;28;20055;-86
2022/06/15 08:22:47;;;;;;;;;;;23.70;99.90;;;;;;5092296;28;20059;-86
2022/06/15 08:25:17;;;;;;;5.00;1.88;;;23.90;99.90;;;;;;5075750;28;19965;-85
2022/06/15 08:27:43;;;;;;;4.82;1.50;;;24.20;99.90;;;;;;5072478;28;20068;-86
2022/06/15 08:30:12;;;;;;;4.45;1.83;;;24.00;99.90;;;;;;5074585;28;20501;-86
2022/06/15 08:32:39;;;;;;;6.68;1.88;;;24.50;99.90;;;;;;5074561;28;20040;-86
2022/06/15 08:35:12;;;;;;;5.20;1.95;;;24.70;99.90;;;;;;5059271;28;20044;-86
2022/06/15 08:37:41;;;;;;;4.05;1.88;;;24.80;99.90;;;;;;5084805;28;20123;-86
2022/06/15 08:40:10;;;;;;;4.22;1.70;;;25.00;99.60;;;;;;5075789;28;20447;-86
2022/06/15 08:42:58;;;;;;;3.47;1.40;;;25.00;99.60;;;;;;5076352;28;20127;-86
2022/06/15 08:45:36;;;;;;;3.92;1.65;;;25.20;98.50;;;;;;5076007;28;20083;-86
2022/06/15 08:48:26;;;;;;;4.60;1.73;;;25.40;98.70;;;;;;5093206;28;20048;-85
2022/06/15 08:51:11;;;;;;;4.82;2.08;;;25.60;96.50;;;;;;5086877;28;20044;-84
2022/06/15 08:53:58;;;;;;;5.88;2.17;;;25.40;97.20;;;;;;5107855;28;20075;-86
2022/06/15 08:56:48;;;;;;;4.30;2.13;;;25.00;97.70;;;;;;5092158;28;20449;-86
2022/06/15 08:59:34;;;;;;;4.43;2.08;;;24.80;98.20;;;;;;5106341;28;20052;-87
2022/06/15 09:02:12;;;;;;;3.70;2.03;;;24.50;99.00;;;;;;5089032;28;20047;-86
2022/06/15 09:04:56;;;;;;;3.97;2.30;;;24.20;99.20;;;;;;5089663;28;20609;-86
2022/06/15 09:08:01;;;;;;;3.22;1.88;;;23.90;99.60;;;;;;5085685;28;20373;-86
2022/06/15 09:10:46;;;;;;;4.53;2.65;;;24.00;99.70;;;;;;5083783;28;20686;-86
2022/06/15 09:13:11;;;;;;;4.45;2.35;;;24.30;99.70;;;;;;5094850;28;20123;-86
2022/06/15 09:15:56;;;;;;;4.82;2.33;;;24.80;99.30;;;;;;5110849;28;20135;-86
2022/06/15 09:18:54;;;;;;;5.55;2.05;;;25.30;98.10;;;;;;5088864;28;20051;-86
2022/06/15 09:21:36;;;;;;;4.82;2.15;;;25.80;97.70;;;;;;5082788;28;20095;-86
2022/06/15 09:24:16;;;;;;;5.18;2.15;;;26.20;96.40;;;;;;5106675;28;20092;-86
2022/06/15 09:26:51;;;;;;;3.75;1.73;;;26.50;96.10;;;;;;5104215;28;20055;-86
2022/06/15 09:29:45;;;;;;;6.95;2.05;;;26.70;95.70;;;;;;5091881;28;20054;-86
2022/06/15 09:32:18;;;;;;;4.72;1.70;;;26.80;94.00;;;;;;5109803;28;20048;-86
2022/06/15 09:35:27;;;;;;;4.18;2.00;;;27.10;94.70;;;;;;5104406;28;20044;-87
2022/06/15 09:37:59;;;;;;;5.05;2.03;;;27.40;92.40;;;;;;5082919;28;20149;-86
2022/06/15 09:40:51;;;;;;;4.18;1.98;;;27.40;91.90;;;;;;5083773;28;20572;-86
2022/06/15 09:43:28;;;;;;;4.05;1.80;;;27.60;91.30;;;;;;5086446;28;20048;-87
2022/06/15 09:46:06;;;;;;;3.90;1.80;;;27.70;91.60;;;;;;5088072;28;20055;-86
2022/06/15 09:48:54;;;;;;;3.63;2.00;;;27.90;90.60;;;;;;5091846;28;20083;-87
2022/06/15 09:51:46;;;;;;;5.13;1.90;;;28.00;89.20;;;;;;5106246;28;21019;-86
2022/06/15 09:54:23;;;;;;;5.15;1.90;;;28.10;89.40;;;;;;5090200;28;20060;-87
2022/06/15 09:56:52;;;;;;;4.15;1.90;;;27.80;87.30;;;;;;5093159;28;20118;-86
2022/06/15 09:59:21;;;;;;;3.80;1.98;;;27.10;86.70;;;;;;5088714;28;20126;-86
2022/06/15 10:01:49;;;;;;;4.18;1.90;;;26.80;88.10;;;;;;5107148;28;20051;-87
2022/06/15 10:04:23;;;;;;;3.33;1.63;;;26.80;90.00;;;;;;5076494;28;20396;-86
2022/06/15 10:06:55;;;;;;;4.28;2.13;;;27.20;90.20;;;;;;5090683;28;20476;-86
2022/06/15 10:09:35;;;;;;;3.65;1.88;;;27.50;87.70;;;;;;5087169;28;20086;-86
2022/06/15 10:15:36;;;;;;;3.45;2.20;;;28.30;83.10;;;;;;5106880;28;20055;-87
2022/06/15 10:18:44;;;;;;;3.38;1.60;;;28.40;85.30;;;;;;5088237;28;20052;-87
2022/06/15 10:21:14;;;;;;;3.85;2.00;;;28.60;81.40;;;;;;5087906;28;20499;-88
2022/06/15 10:23:46;;;;;;;3.83;1.80;;;28.50;81.00;;;;;;5087855;28;20048;-87
2022/06/15 10:26:42;;;;;;;4.03;1.80;;;28.70;79.80;;;;;;5090342;28;20040;-89
2022/06/15 10:29:14;;;;;;;;;;;29.00;79.30;;;;;;5096318;28;20043;-89
2022/06/15 10:31:42;;;;;;;3.83;1.63;;;29.20;72.90;;;;;;5096925;28;20265;-87
2022/06/15 10:34:46;;;;;;;3.53;1.58;;;29.50;77.10;;;;;;5096275;28;20086;-87
2022/06/15 10:37:40;;;;;;;3.35;1.63;;;29.90;73.10;;;;;;5070561;28;20055;-87
2022/06/15 10:40:35;;;;;;;3.00;1.50;;;29.90;73.20;;;;;;5087412;28;20401;-85
2022/06/15 10:43:18;;;;;;;2.78;1.42;;;29.40;71.40;;;;;;5111171;28;20071;-87
2022/06/15 10:45:58;;;;;;;2.53;1.40;;;29.30;72.20;;;;;;5090885;28;20513;-86
2022/06/15 10:48:55;;;;;;;2.40;1.25;;;29.40;72.00;;;;;;5088908;28;20070;-87
2022/06/15 10:51:33;;;;;;;2.58;1.60;;;29.20;69.30;;;;;;5105252;28;20054;-87
2022/06/15 10:54:30;;;;;;;2.83;1.45;;;29.00;70.00;;;;;;5090796;28;20050;-86
2022/06/15 11:03:23;;;;;;;3.55;1.20;;;29.50;68.90;;;;;;5107043;28;20549;-88
2022/06/15 11:05:53;;;;;;;3.75;1.48;;;29.80;68.70;;;;;;5087503;28;20159;-87
2022/06/15 11:08:26;;;;;;;4.95;1.40;;;29.90;68.10;;;;;;5088168;28;20122;-88
2022/06/15 11:11:14;;;;;;;2.97;1.40;;;30.00;63.60;;;;;;5084378;28;20039;-88
2022/06/15 11:13:52;;;;;;;3.47;1.40;;;29.40;63.80;;;;;;5098710;28;20071;-86
2022/06/15 11:19:29;;;;;;;3.65;1.65;;;29.50;64.90;;;;;;5105009;28;20051;-87
2022/06/15 11:22:11;;;;;;;3.22;1.55;;;29.70;66.10;;;;;;5086189;28;20044;-86
2022/06/15 11:24:59;;;;;;;2.65;1.20;;;29.90;65.60;;;;;;5082283;28;20609;-87
2022/06/15 11:28:06;;;;;;;3.45;1.65;;;30.30;64.80;;;;;;5089369;28;20062;-86
2022/06/15 11:30:37;;;;;;;3.38;1.60;;;30.60;58.60;;;;;;5033318;28;20052;-87
2022/06/15 11:33:26;;;;;;;4.38;1.50;;;31.00;62.30;;;;;;5059546;28;20438;-87
2022/06/15 11:36:05;;;;;;;3.65;1.48;;;31.20;59.00;;;;;;5114092;27;20059;-87
2022/06/15 11:39:00;;;;;;;3.63;1.50;;;31.30;60.40;;;;;;5088905;28;20047;-87
2022/06/15 11:41:44;;;;;;;4.10;1.88;;;31.50;60.40;;;;;;5080724;28;20059;-86
2022/06/15 11:44:22;;;;;;;3.55;1.70;;;31.50;58.50;;;;;;5093987;28;20444;-86
2022/06/15 11:47:13;;;;;;;3.65;1.60;;;31.60;58.40;;;;;;5088671;28;20134;-87
2022/06/15 11:50:05;;;;;;;3.85;1.67;;;31.60;59.20;;;;;;5090858;28;20062;-86
2022/06/15 11:52:48;;;;;;;3.67;1.58;;;31.50;59.50;;;;;;5091343;28;20138;-86
2022/06/15 11:55:40;;;;;;;5.07;1.73;;;31.50;59.60;;;;;;5093841;28;20051;-87
2022/06/15 11:58:25;;;;;;;5.22;1.42;;;31.60;60.30;;;;;;5108057;28;20100;-86
2022/06/15 12:01:00;;;;;;;4.22;1.58;;;31.60;57.80;;;;;;5087786;28;20056;-86
2022/06/15 12:03:51;;;;;;;5.90;1.90;;;31.90;57.90;;;;;;5112705;28;20537;-86
2022/06/15 12:06:30;;;;;;;3.65;1.67;;;31.30;56.40;;;;;;5093586;28;20387;-87
2022/06/15 12:09:21;;;;;;;2.58;1.40;;;30.70;57.00;;;;;;5109775;28;20098;-85
2022/06/15 12:15:20;;;;;;;2.67;1.40;;;30.60;58.70;;;;;;5110987;28;20043;-86
2022/06/15 12:18:11;;;;;;;2.97;1.27;;;30.60;55.80;;;;;;5094463;28;20079;-87
2022/06/15 12:20:51;;;;;;;2.70;1.45;;;30.50;56.30;;;;;;5088507;28;20087;-87
2022/06/15 12:23:37;;;;;;;2.70;1.50;;;30.50;57.80;;;;;;5090666;28;20104;-87
2022/06/15 12:26:16;;;;;;;3.70;1.40;;;30.60;58.00;;;;;;5085057;28;20047;-86
2022/06/15 12:28:57;;;;;;;3.88;1.70;;;30.80;56.90;;;;;;5092555;28;20054;-86
2022/06/15 12:31:35;;;;;;;3.28;1.20;;;30.80;56.10;;;;;;5094806;28;20052;-86
2022/06/15 12:34:13;;;;;;;2.80;1.30;;;31.00;55.90;;;;;;5091108;28;20128;-87
2022/06/15 12:36:59;;;;;;;2.10;1.25;;;31.00;55.40;;;;;;5087672;28;20091;-86
2022/06/15 12:39:32;;;;;;;2.55;1.40;;;31.00;53.40;;;;;;5090329;28;20051;-87
2022/06/15 12:42:11;;;;;;;3.05;1.13;;;31.10;54.40;;;;;;5084645;28;20047;-87
2022/06/15 12:45:08;;;;;;;2.72;1.15;;;31.30;54.40;;;;;;5094770;28;20113;-87
2022/06/15 12:47:46;;;;;;;3.72;1.17;;;31.60;55.10;;;;;;5104377;28;20090;-86
2022/06/15 12:50:24;;;;;;;3.08;1.15;;;31.90;54.40;;;;;;5086713;28;20051;-87
2022/06/15 12:53:49;;;;;;;4.07;1.33;;;31.90;53.30;;;;;;5087997;28;20093;-87
2022/06/15 12:56:34;;;;;;;2.00;1.08;;;32.00;53.60;;;;;;5031633;28;20106;-87
2022/06/15 12:59:26;;;;;;;2.67;1.30;;;31.80;51.70;;;;;;5032584;28;20530;-88
2022/06/15 13:02:23;;;;;;;4.55;1.27;;;31.90;50.70;;;;;;5101257;28;20055;-88
2022/06/15 13:05:05;;;;;;;3.50;1.17;;;31.70;49.40;;;;;;5085542;28;20493;-87
2022/06/15 13:07:33;;;;;;;3.50;1.33;;;31.70;51.70;;;;;;5082763;28;20048;-87
2022/06/15 13:10:18;;;;;;;3.95;1.30;;;31.70;51.50;;;;;;5085260;28;20550;-86
2022/06/15 13:12:48;;;;;;;3.13;1.10;;;31.60;51.50;;;;;;5085230;28;20480;-87
2022/06/15 13:15:59;;;;;;;2.67;1.40;;;31.60;51.60;;;;;;5104511;28;20044;-87
2022/06/15 13:18:51;;;;;;;2.30;1.20;;;31.60;50.70;;;;;;5069310;28;20059;-87
2022/06/15 13:21:26;;;;;;;4.55;1.23;;;31.50;51.10;;;;;;5091444;28;20090;-87
2022/06/15 13:24:02;;;;;;;3.17;1.20;;;31.50;51.30;;;;;;5091878;28;20055;-87
2022/06/15 13:26:39;;;;;;;2.58;1.27;;;31.80;51.30;;;;;;5100920;28;20102;-87
2022/06/15 13:29:17;;;;;;;2.15;1.10;;;31.70;51.50;;;;;;5088628;28;20050;-87
2022/06/15 13:32:05;;;;;;;2.08;1.00;;;31.70;50.80;;;;;;5087605;28;20130;-86
2022/06/15 13:34:54;;;;;;;2.65;1.20;;;31.60;48.50;;;;;;5087897;28;20100;-87
2022/06/15 13:37:27;;;;;;;2.85;1.00;;;32.10;50.30;;;;;;5110571;28;20047;-87
2022/06/15 13:40:12;;;;;;;2.08;0.90;;;31.60;50.00;;;;;;5087403;28;20058;-87
2022/06/15 13:42:47;;;;;;;2.15;1.10;;;31.60;49.60;;;;;;5086767;28;20036;-86
2022/06/15 13:45:33;;;;;;;2.28;1.02;;;31.50;49.90;;;;;;5091445;28;20063;-88